createdAt,value
2018-09-29T00:00:29.449Z,6.40
2018-09-29T00:02:58.794Z,6.10
2018-09-29T00:05:29.152Z,5.90
2018-09-29T00:07:58.676Z,5.60
2018-09-29T00:10:28.681Z,5.70
2018-09-29T00:12:57.964Z,5.00
2018-09-29T00:15:27.273Z,5.07
2018-09-29T00:17:57.169Z,6.03
2018-09-29T00:20:27.196Z,5.53
2018-09-29T00:22:57.204Z,5.50
2018-09-29T00:25:27.384Z,5.80
2018-09-29T00:27:56.979Z,4.43
2018-09-29T00:30:27.395Z,4.43
2018-09-29T00:32:57.303Z,4.97
2018-09-29T00:35:26.810Z,5.30
2018-09-29T00:37:56.193Z,4.83
2018-09-29T00:40:26.396Z,4.87
2018-09-29T00:42:55.716Z,4.60
2018-09-29T00:45:26.021Z,4.40
2018-09-29T00:47:55.217Z,4.13
2018-09-29T00:50:25.401Z,4.23
2018-09-29T00:52:54.957Z,4.53
2018-09-29T00:55:24.256Z,4.40
2018-09-29T00:57:54.121Z,5.40
2018-09-29T01:00:23.709Z,4.63
2018-09-29T01:02:52.947Z,4.80
2018-09-29T01:05:22.076Z,5.20
2018-09-29T01:07:51.296Z,4.53
2018-09-29T01:10:20.555Z,4.63
2018-09-29T01:12:49.823Z,4.30
2018-09-29T01:15:19.568Z,4.40
2018-09-29T01:17:49.173Z,4.00
2018-09-29T01:20:18.352Z,4.40
2018-09-29T01:22:47.770Z,3.90
2018-09-29T01:25:17.105Z,4.57
2018-09-29T01:27:47.128Z,4.00
2018-09-29T01:30:16.284Z,4.30
2018-09-29T01:32:45.661Z,3.60
2018-09-29T01:35:15.348Z,4.10
2018-09-29T01:37:45.708Z,4.20
2018-09-29T01:40:15.000Z,3.93
2018-09-29T01:42:44.161Z,4.13
2018-09-29T01:45:13.845Z,3.83
2018-09-29T01:47:43.505Z,4.00
2018-09-29T01:50:12.891Z,3.70
2018-09-29T01:52:42.257Z,3.63
2018-09-29T01:55:11.962Z,3.40
2018-09-29T01:57:41.184Z,3.40
2018-09-29T02:00:10.925Z,3.57
2018-09-29T02:02:40.314Z,3.37
2018-09-29T02:05:09.538Z,3.80
2018-09-29T02:07:38.733Z,3.87
2018-09-29T02:10:07.982Z,3.60
2018-09-29T02:12:37.176Z,3.23
2018-09-29T02:15:06.769Z,3.30
2018-09-29T02:17:36.530Z,3.12
2018-09-29T02:20:05.831Z,2.63
2018-09-29T02:22:35.005Z,3.10
2018-09-29T02:25:04.605Z,2.92
2018-09-29T02:27:34.437Z,3.23
2018-09-29T02:30:04.015Z,3.10
2018-09-29T02:32:33.254Z,2.70
2018-09-29T02:35:02.835Z,2.52
2018-09-29T02:37:32.941Z,2.47
2018-09-29T02:40:03.165Z,2.47
2018-09-29T02:42:32.725Z,2.67
2018-09-29T02:45:01.936Z,2.50
2018-09-29T02:48:33.874Z,2.22
2018-09-29T02:51:03.386Z,2.40
2018-09-29T02:53:33.057Z,2.70
2018-09-29T02:56:02.270Z,2.90
2018-09-29T02:58:31.769Z,2.50
2018-09-29T03:01:02.135Z,2.83
2018-09-29T03:03:31.875Z,2.30
2018-09-29T03:06:01.280Z,2.58
2018-09-29T03:08:30.878Z,3.42
2018-09-29T03:11:00.228Z,2.50
2018-09-29T03:13:29.382Z,2.77
2018-09-29T03:15:58.919Z,3.00
2018-09-29T03:18:28.411Z,3.27
2018-09-29T03:20:57.700Z,3.17
2018-09-29T03:23:27.030Z,3.50
2018-09-29T03:25:56.479Z,3.83
2018-09-29T03:28:26.119Z,3.40
2018-09-29T03:30:55.387Z,3.10
2018-09-29T03:33:27.139Z,3.70
2018-09-29T03:35:57.310Z,4.08
2018-09-29T03:38:26.767Z,3.70
2018-09-29T03:40:57.796Z,3.83
2018-09-29T03:43:27.206Z,2.95
2018-09-29T03:45:56.396Z,3.55
2018-09-29T03:48:25.719Z,3.02
2018-09-29T03:50:55.266Z,2.85
2018-09-29T03:53:24.540Z,3.05
2018-09-29T03:55:53.951Z,2.58
2018-09-29T03:58:23.847Z,3.00
2018-09-29T04:00:54.450Z,3.00
2018-09-29T04:03:24.017Z,2.70
2018-09-29T04:05:53.451Z,3.05
2018-09-29T04:08:23.151Z,2.65
2018-09-29T04:10:52.481Z,2.70
2018-09-29T04:13:21.662Z,2.15
2018-09-29T04:15:50.895Z,2.65
2018-09-29T04:18:20.671Z,2.20
2018-09-29T04:20:51.903Z,2.60
2018-09-29T04:23:21.244Z,2.52
2018-09-29T04:25:50.365Z,2.95
2018-09-29T04:28:22.082Z,2.42
2018-09-29T04:30:51.384Z,2.45
2018-09-29T04:33:21.031Z,2.80
2018-09-29T04:35:50.658Z,2.52
2018-09-29T04:38:19.846Z,2.50
2018-09-29T04:40:49.502Z,2.60
2018-09-29T04:43:20.415Z,2.72
2018-09-29T04:45:49.496Z,2.85
2018-09-29T04:48:19.408Z,3.20
2018-09-29T04:50:48.830Z,5.12
2018-09-29T04:53:18.086Z,4.45
2018-09-29T04:55:48.318Z,4.85
2018-09-29T04:58:19.077Z,5.17
2018-09-29T05:00:48.856Z,4.12
2018-09-29T05:03:18.500Z,4.55
2018-09-29T05:05:47.833Z,4.75
2018-09-29T05:09:46.341Z,5.03
2018-09-29T05:12:15.812Z,3.20
2018-09-29T05:14:45.026Z,3.30
2018-09-29T05:17:14.161Z,3.40
2018-09-29T05:19:47.580Z,4.08
2018-09-29T05:22:16.750Z,4.10
2018-09-29T05:24:46.681Z,4.50
2018-09-29T05:27:16.178Z,4.70
2018-09-29T05:29:46.102Z,3.75
2018-09-29T05:32:17.069Z,4.30
2018-09-29T05:34:46.423Z,4.22
2018-09-29T05:37:16.170Z,4.50
2018-09-29T05:39:45.343Z,4.22
2018-09-29T05:42:14.812Z,4.33
2018-09-29T05:44:44.262Z,4.42
2018-09-29T05:47:14.282Z,4.35
2018-09-29T05:49:44.149Z,4.05
2018-09-29T05:52:13.733Z,3.85
2018-09-29T05:54:43.175Z,3.25
2018-09-29T05:57:12.525Z,3.67
2018-09-29T05:59:41.765Z,4.03
2018-09-29T06:02:11.660Z,3.77
2018-09-29T06:04:40.991Z,3.27
2018-09-29T06:07:10.366Z,3.27
2018-09-29T06:09:40.086Z,3.27
2018-09-29T06:12:09.414Z,3.58
2018-09-29T06:14:39.173Z,3.50
2018-09-29T06:17:08.412Z,3.10
2018-09-29T06:19:37.620Z,3.05
2018-09-29T06:22:07.750Z,3.02
2018-09-29T06:24:37.371Z,3.00
2018-09-29T06:27:06.707Z,3.62
2018-09-29T06:29:36.280Z,3.42
2018-09-29T06:32:06.907Z,3.52
2018-09-29T06:34:36.653Z,3.37
2018-09-29T06:37:05.979Z,3.77
2018-09-29T06:39:36.078Z,3.45
2018-09-29T06:42:05.828Z,3.10
2018-09-29T06:44:36.210Z,3.42
2018-09-29T06:47:06.710Z,3.00
2018-09-29T06:49:36.210Z,3.30
2018-09-29T06:52:06.652Z,4.65
2018-09-29T06:54:36.070Z,4.62
2018-09-29T06:57:07.145Z,4.60
2018-09-29T06:59:36.758Z,3.98
2018-09-29T07:02:05.958Z,4.20
2018-09-29T07:04:35.151Z,4.12
2018-09-29T07:07:05.446Z,9.88
2018-09-29T07:09:35.833Z,7.30
2018-09-29T07:12:05.180Z,5.60
2018-09-29T07:14:34.400Z,4.77
2018-09-29T07:17:05.770Z,4.57
2018-09-29T07:19:35.875Z,4.93
2018-09-29T07:22:05.938Z,4.60
2018-09-29T07:24:35.341Z,4.80
2018-09-29T07:27:04.475Z,5.30
2018-09-29T07:29:33.770Z,3.77
2018-09-29T07:32:04.604Z,3.37
2018-09-29T07:34:33.841Z,3.60
2018-09-29T07:37:03.304Z,5.13
2018-09-29T07:39:32.727Z,4.07
2018-09-29T07:42:03.394Z,3.97
2018-09-29T07:44:39.750Z,4.23
2018-09-29T07:47:09.032Z,4.00
2018-09-29T07:49:41.207Z,3.70
2018-09-29T07:52:10.844Z,4.00
2018-09-29T07:54:41.314Z,3.40
2018-09-29T07:57:10.783Z,3.20
2018-09-29T07:59:40.498Z,3.17
2018-09-29T08:02:10.662Z,3.80
2018-09-29T08:04:39.883Z,3.57
2018-09-29T08:07:12.776Z,4.47
2018-09-29T08:09:42.246Z,3.97
2018-09-29T08:12:12.253Z,3.93
2018-09-29T08:14:44.744Z,3.83
2018-09-29T08:17:14.199Z,5.00
2018-09-29T08:19:43.456Z,7.00
2018-09-29T08:22:13.265Z,7.37
2018-09-29T08:24:43.165Z,9.97
2018-09-29T08:27:13.141Z,9.40
2018-09-29T08:29:43.178Z,7.53
2018-09-29T08:32:15.327Z,6.30
2018-09-29T08:34:48.302Z,4.60
2018-09-29T08:37:19.021Z,7.57
2018-09-29T08:39:49.077Z,5.23
2018-09-29T08:42:18.674Z,6.43
2018-09-29T08:44:48.456Z,4.17
2018-09-29T08:47:18.766Z,3.20
2018-09-29T08:49:48.300Z,3.17
2018-09-29T08:52:19.666Z,3.00
2018-09-29T08:54:49.402Z,2.57
2018-09-29T08:57:20.184Z,2.53
2018-09-29T08:59:49.749Z,2.37
2018-09-29T09:02:21.005Z,2.23
2018-09-29T09:04:52.204Z,1.90
2018-09-29T09:07:22.118Z,1.87
2018-09-29T09:09:52.987Z,1.90
2018-09-29T09:12:22.725Z,2.50
2018-09-29T09:15:00.711Z,2.20
2018-09-29T09:17:30.527Z,1.93
2018-09-29T09:20:07.308Z,2.50
2018-09-29T09:22:40.057Z,1.70
2018-09-29T09:25:11.369Z,2.10
2018-09-29T09:27:43.185Z,1.97
2018-09-29T09:30:13.338Z,2.37
2018-09-29T09:32:44.765Z,2.43
2018-09-29T09:35:14.206Z,1.77
2018-09-29T09:37:44.592Z,1.50
2018-09-29T09:40:17.360Z,2.17
2018-09-29T09:42:47.021Z,1.90
2018-09-29T09:45:21.348Z,1.97
2018-09-29T09:47:52.425Z,1.73
2018-09-29T09:50:22.441Z,1.87
2018-09-29T09:52:54.972Z,1.77
2018-09-29T09:55:24.226Z,1.80
2018-09-29T09:57:53.653Z,2.03
2018-09-29T10:00:27.478Z,1.73
2018-09-29T10:03:02.676Z,1.63
2018-09-29T10:05:33.219Z,1.73
2018-09-29T10:08:03.107Z,1.97
2018-09-29T10:10:34.160Z,1.70
2018-09-29T10:13:04.266Z,1.53
2018-09-29T10:15:35.376Z,1.70
2018-09-29T10:18:05.628Z,1.80
2018-09-29T10:20:36.538Z,1.77
2018-09-29T10:23:06.641Z,1.53
2018-09-29T10:25:36.086Z,1.93
2018-09-29T10:28:05.650Z,1.50
2018-09-29T10:30:38.961Z,2.20
2018-09-29T10:33:09.316Z,1.80
2018-09-29T10:35:39.730Z,1.53
2018-09-29T10:38:10.055Z,2.07
2018-09-29T10:40:40.760Z,2.30
2018-09-29T10:43:11.000Z,2.30
2018-09-29T10:45:42.666Z,1.80
2018-09-29T10:48:12.210Z,1.57
2018-09-29T10:50:42.779Z,1.83
2018-09-29T10:53:13.743Z,2.50
2018-09-29T10:55:45.240Z,2.27
2018-09-29T10:58:16.222Z,1.80
2018-09-29T11:00:47.817Z,1.67
2018-09-29T11:03:18.440Z,1.80
2018-09-29T11:05:52.310Z,1.60
2018-09-29T11:08:21.610Z,1.97
2018-09-29T11:10:51.349Z,1.27
2018-09-29T11:13:22.120Z,1.30
2018-09-29T11:15:52.317Z,1.77
2018-09-29T11:18:21.948Z,1.77
2018-09-29T11:20:51.797Z,1.43
2018-09-29T11:23:21.178Z,1.77
2018-09-29T11:25:50.948Z,1.77
2018-09-29T11:28:21.554Z,1.47
2018-09-29T11:30:51.649Z,1.70
2018-09-29T11:33:21.232Z,1.67
2018-09-29T11:35:52.187Z,1.33
2018-09-29T11:38:22.776Z,2.00
2018-09-29T11:40:54.583Z,1.47
2018-09-29T11:43:25.137Z,1.73
2018-09-29T11:45:58.103Z,1.43
2018-09-29T11:48:33.823Z,2.00
2018-09-29T11:51:04.135Z,1.57
2018-09-29T11:53:35.281Z,1.70
2018-09-29T11:56:07.306Z,1.40
2018-09-29T11:58:37.924Z,1.90
2018-09-29T12:01:12.224Z,1.87
2018-09-29T12:03:42.334Z,1.80
2018-09-29T12:06:13.113Z,1.77
2018-09-29T12:08:43.780Z,1.60
2018-09-29T12:11:14.802Z,2.00
2018-09-29T12:15:15.105Z,1.53
2018-09-29T12:17:45.185Z,1.80
2018-09-29T12:20:15.147Z,1.60
2018-09-29T12:22:45.004Z,1.40
2018-09-29T12:25:18.676Z,1.60
2018-09-29T12:27:48.359Z,1.50
2018-09-29T12:30:20.611Z,1.50
2018-09-29T12:32:51.029Z,1.57
2018-09-29T12:35:21.076Z,1.33
2018-09-29T12:37:50.575Z,2.00
2018-09-29T12:40:20.671Z,1.87
2018-09-29T12:42:50.617Z,1.70
2018-09-29T12:45:20.153Z,2.00
2018-09-29T12:47:50.487Z,1.80
2018-09-29T12:50:21.273Z,1.83
2018-09-29T12:52:52.326Z,1.80
2018-09-29T12:55:25.320Z,1.57
2018-09-29T13:00:40.797Z,1.40
2018-09-29T13:03:13.077Z,1.93
2018-09-29T13:05:44.819Z,2.07
2018-09-29T13:08:23.372Z,2.00
2018-09-29T13:10:54.563Z,1.67
2018-09-29T13:13:25.459Z,1.73
2018-09-29T13:15:59.384Z,1.80
2018-09-29T13:18:30.113Z,1.40
2018-09-29T13:21:01.348Z,1.43
2018-09-29T13:23:31.095Z,1.60
2018-09-29T13:26:01.323Z,1.40
2018-09-29T13:28:32.344Z,1.63
2018-09-29T13:31:01.847Z,1.40
2018-09-29T13:33:33.185Z,1.30
2018-09-29T13:36:04.208Z,1.50
2018-09-29T13:38:37.157Z,1.87
2018-09-29T13:41:09.804Z,1.73
2018-09-29T13:43:43.736Z,1.93
2018-09-29T13:46:15.111Z,1.43
2018-09-29T13:48:50.932Z,1.60
2018-09-29T13:51:24.948Z,1.33
2018-09-29T13:53:54.657Z,1.47
2018-09-29T13:56:24.967Z,1.77
2018-09-29T13:58:55.859Z,1.73
2018-09-29T14:01:26.467Z,1.30
2018-09-29T14:03:56.737Z,1.60
2018-09-29T14:06:26.538Z,1.20
2018-09-29T14:08:56.570Z,1.87
2018-09-29T14:11:32.641Z,1.33
2018-09-29T14:14:01.951Z,1.23
2018-09-29T14:16:34.655Z,1.27
2018-09-29T14:19:04.698Z,1.10
2018-09-29T14:21:34.760Z,1.30
2018-09-29T14:24:08.091Z,1.40
2018-09-29T14:26:40.703Z,1.40
2018-09-29T14:29:13.401Z,1.10
2018-09-29T14:31:48.818Z,1.47
2018-09-29T14:34:20.523Z,1.60
2018-09-29T14:36:54.016Z,1.10
2018-09-29T14:39:25.980Z,1.27
2018-09-29T14:41:55.879Z,1.27
2018-09-29T14:44:26.003Z,1.00
2018-09-29T14:46:56.397Z,1.43
2018-09-29T14:49:26.825Z,1.87
2018-09-29T14:51:56.684Z,1.40
2018-09-29T14:54:27.741Z,1.50
2018-09-29T14:56:59.091Z,1.33
2018-09-29T14:59:29.141Z,1.43
2018-09-29T15:01:59.652Z,1.60
2018-09-29T15:04:32.080Z,1.20
2018-09-29T15:07:06.257Z,1.00
2018-09-29T15:09:37.237Z,1.83
2018-09-29T15:12:07.565Z,1.20
2018-09-29T15:14:39.469Z,1.40
2018-09-29T15:17:09.009Z,1.80
2018-09-29T15:19:38.440Z,1.57
2018-09-29T15:22:10.375Z,2.57
2018-09-29T15:24:41.610Z,1.30
2018-09-29T15:27:11.759Z,1.60
2018-09-29T15:29:41.881Z,1.57
2018-09-29T15:32:11.372Z,1.40
2018-09-29T15:34:45.727Z,1.30
2018-09-29T15:37:15.104Z,1.80
2018-09-29T15:39:45.172Z,1.60
2018-09-29T15:42:15.215Z,1.50
2018-09-29T15:44:44.662Z,1.67
2018-09-29T15:47:17.031Z,1.43
2018-09-29T15:49:46.564Z,1.30
2018-09-29T15:52:17.661Z,1.80
2018-09-29T15:54:49.231Z,1.80
2018-09-29T15:57:25.261Z,1.60
2018-09-29T15:59:57.184Z,1.80
2018-09-29T16:02:28.130Z,2.00
2018-09-29T16:04:59.166Z,1.77
2018-09-29T16:07:31.186Z,2.10
2018-09-29T16:10:02.032Z,1.63
2018-09-29T16:12:31.670Z,1.80
2018-09-29T16:15:01.558Z,1.90
2018-09-29T16:17:31.021Z,1.70
2018-09-29T16:20:04.454Z,1.90
2018-09-29T16:22:37.202Z,1.90
2018-09-29T16:25:08.309Z,1.67
2018-09-29T16:27:41.350Z,1.77
2018-09-29T16:30:11.253Z,1.60
2018-09-29T16:32:43.641Z,2.20
2018-09-29T16:35:15.048Z,1.70
2018-09-29T16:37:46.372Z,1.63
2018-09-29T16:40:15.929Z,1.60
2018-09-29T16:42:47.269Z,2.40
2018-09-29T16:45:17.138Z,2.40
2018-09-29T16:47:47.740Z,3.17
2018-09-29T16:50:18.061Z,3.60
2018-09-29T16:52:47.345Z,4.97
2018-09-29T16:55:16.541Z,3.87
2018-09-29T16:57:46.684Z,4.23
2018-09-29T17:00:16.115Z,3.53
2018-09-29T17:02:46.891Z,3.50
2018-09-29T17:05:17.250Z,3.10
2018-09-29T17:07:46.618Z,2.93
2018-09-29T17:10:17.668Z,2.57
2018-09-29T17:12:50.498Z,2.40
2018-09-29T17:15:20.806Z,1.93
2018-09-29T17:17:50.766Z,2.33
2018-09-29T17:20:21.034Z,2.10
2018-09-29T17:22:50.310Z,2.47
2018-09-29T17:25:19.525Z,2.50
2018-09-29T17:27:49.738Z,3.23
2018-09-29T17:30:19.165Z,2.90
2018-09-29T17:32:48.854Z,3.00
2018-09-29T17:35:19.675Z,3.40
2018-09-29T17:37:53.656Z,2.90
2018-09-29T17:40:23.777Z,3.83
2018-09-29T17:42:53.992Z,3.30
2018-09-29T17:45:24.756Z,3.20
2018-09-29T17:47:55.694Z,2.60
2018-09-29T17:50:27.295Z,2.90
2018-09-29T17:52:58.690Z,3.07
2018-09-29T17:55:30.157Z,3.70
2018-09-29T17:57:59.824Z,4.00
2018-09-29T18:00:29.868Z,3.33
2018-09-29T18:02:59.570Z,3.07
2018-09-29T18:05:30.452Z,2.47
2018-09-29T18:07:59.802Z,3.13
2018-09-29T18:10:30.765Z,3.60
2018-09-29T18:13:01.697Z,2.97
2018-09-29T18:15:32.452Z,2.67
2018-09-29T18:18:04.111Z,5.47
2018-09-29T18:20:35.209Z,6.40
2018-09-29T18:23:04.762Z,6.97
2018-09-29T18:25:37.554Z,4.87
2018-09-29T18:28:07.789Z,4.17
2018-09-29T18:30:38.341Z,3.97
2018-09-29T18:33:08.741Z,3.87
2018-09-29T18:35:38.326Z,3.60
2018-09-29T18:38:08.142Z,4.00
2018-09-29T18:40:38.788Z,4.40
2018-09-29T18:43:09.730Z,5.57
2018-09-29T18:45:40.613Z,3.77
2018-09-29T18:48:11.454Z,3.60
2018-09-29T18:50:41.805Z,4.30
2018-09-29T18:53:11.279Z,3.60
2018-09-29T18:55:43.185Z,3.27
2018-09-29T18:58:14.540Z,4.23
2018-09-29T19:00:44.452Z,4.03
2018-09-29T19:03:14.756Z,5.20
2018-09-29T19:05:45.733Z,4.63
2018-09-29T19:08:31.422Z,4.37
2018-09-29T19:11:03.979Z,4.03
2018-09-29T19:13:38.878Z,4.00
2018-09-29T19:16:09.325Z,4.10
2018-09-29T19:18:39.995Z,3.60
2018-09-29T19:21:11.584Z,3.80
2018-09-29T19:23:41.445Z,3.47
2018-09-29T19:26:12.216Z,3.80
2018-09-29T19:28:42.696Z,4.60
2018-09-29T19:31:13.178Z,4.20
2018-09-29T19:33:43.208Z,3.90
2018-09-29T19:36:15.443Z,3.10
2018-09-29T19:38:46.205Z,3.30
2018-09-29T19:41:16.365Z,3.30
2018-09-29T19:43:46.638Z,2.87
2018-09-29T19:46:22.109Z,3.47
2018-09-29T19:48:52.750Z,2.93
2018-09-29T19:51:23.358Z,2.80
2018-09-29T19:53:53.556Z,3.30
2018-09-29T19:56:30.494Z,3.10
2018-09-29T19:59:02.451Z,3.17
2018-09-29T20:01:36.187Z,3.10
2018-09-29T20:04:06.861Z,2.90
2018-09-29T20:09:17.337Z,2.90
2018-09-29T20:11:50.781Z,2.90
2018-09-29T20:14:20.193Z,3.20
2018-09-29T20:16:50.407Z,2.80
2018-09-29T20:19:19.973Z,2.93
2018-09-29T20:21:49.441Z,2.83
2018-09-29T20:24:21.222Z,3.73
2018-09-29T20:26:51.143Z,3.10
2018-09-29T20:29:21.385Z,2.93
2018-09-29T20:31:52.382Z,2.90
2018-09-29T20:34:25.201Z,3.10
2018-09-29T20:36:57.182Z,2.80
2018-09-29T20:39:28.254Z,3.10
2018-09-29T20:42:01.512Z,3.10
2018-09-29T20:44:32.555Z,3.17
2018-09-29T20:49:37.730Z,3.40
2018-09-29T20:52:07.317Z,3.70
2018-09-29T20:54:39.420Z,8.47
2018-09-29T20:57:10.103Z,3.10
2018-09-29T20:59:39.339Z,3.00
2018-09-29T21:02:08.598Z,2.87
2018-09-29T21:04:38.833Z,2.90
2018-09-29T21:07:07.994Z,3.13
2018-09-29T21:09:40.353Z,3.77
2018-09-29T21:12:10.109Z,4.13
2018-09-29T21:14:39.192Z,3.47
2018-09-29T21:17:08.363Z,4.10
2018-09-29T21:19:38.773Z,3.77
2018-09-29T21:22:09.330Z,2.97
2018-09-29T21:24:38.462Z,2.80
2018-09-29T21:27:08.177Z,2.93
2018-09-29T21:29:37.709Z,2.60
2018-09-29T21:32:07.032Z,2.67
2018-09-29T21:34:37.172Z,3.13
2018-09-29T21:37:06.387Z,2.80
2018-09-29T21:39:36.725Z,2.80
2018-09-29T21:42:07.198Z,2.90
2018-09-29T21:44:36.401Z,2.90
2018-09-29T21:47:06.226Z,3.43
2018-09-29T21:49:35.477Z,3.50
2018-09-29T21:52:04.797Z,3.13
2018-09-29T21:54:34.083Z,3.23
2018-09-29T21:57:03.755Z,2.70
2018-09-29T21:59:33.726Z,2.67
2018-09-29T22:02:02.910Z,3.00
2018-09-29T22:04:32.465Z,3.20
2018-09-29T22:07:03.870Z,3.17
2018-09-29T22:09:34.557Z,2.60
2018-09-29T22:12:03.741Z,2.87
2018-09-29T22:14:34.221Z,3.30
2018-09-29T22:17:06.608Z,3.13
2018-09-29T22:19:35.735Z,2.93
2018-09-29T22:22:05.300Z,2.70
2018-09-29T22:24:35.338Z,3.03
2018-09-29T22:27:04.553Z,3.03
2018-09-29T22:29:34.197Z,2.63
2018-09-29T22:32:03.607Z,2.70
2018-09-29T22:34:33.417Z,2.80
2018-09-29T22:37:03.720Z,2.30
2018-09-29T22:39:33.240Z,2.80
2018-09-29T22:42:02.801Z,2.60
2018-09-29T22:44:31.978Z,2.40
2018-09-29T22:47:01.305Z,2.40
2018-09-29T22:49:31.846Z,2.67
2018-09-29T22:52:06.452Z,2.00
2018-09-29T22:54:37.050Z,2.13
2018-09-29T22:57:06.188Z,2.50
2018-09-29T22:59:36.638Z,2.00
2018-09-29T23:02:06.022Z,2.03
2018-09-29T23:04:35.500Z,2.10
2018-09-29T23:07:05.658Z,2.10
2018-09-29T23:09:35.172Z,2.30
2018-09-29T23:12:04.345Z,2.90
2018-09-29T23:14:33.846Z,2.40
2018-09-29T23:17:03.221Z,2.13
2018-09-29T23:19:34.185Z,2.03
2018-09-29T23:22:03.778Z,1.90
2018-09-29T23:24:33.073Z,2.10
2018-09-29T23:27:02.354Z,2.10
2018-09-29T23:29:31.527Z,2.27
2018-09-29T23:32:01.986Z,2.17
2018-09-29T23:34:31.359Z,1.90
2018-09-29T23:37:00.444Z,2.10
2018-09-29T23:39:29.765Z,2.47
2018-09-29T23:41:59.186Z,2.60
2018-09-29T23:44:29.093Z,1.90
2018-09-29T23:46:58.755Z,2.27
2018-09-29T23:49:29.182Z,2.50
2018-09-29T23:51:59.103Z,2.57
2018-09-29T23:54:28.735Z,2.60
2018-09-29T23:56:58.298Z,2.90
2018-09-29T23:59:27.484Z,2.67
